Time;durP1;ratioP1;P1;durP2;ratioP2;P2;SDS_P1;SDS_P2;PMS_P1;PMS_P2;Temp;Humidity;BMP_temperature;BMP_pressure;BME280_temperature;BME280_humidity;BME280_pressure;Samples;Min_cycle;Max_cycle;Signal;HPM_P1;HPM_P2
2022/01/19 00:01:01;;;;;;;3.60;2.47;;;5.50;99.90;;;;;;4992534;28;20424;-70
2022/01/19 00:03:27;;;;;;;3.10;2.60;;;5.50;99.90;;;;;;4974418;28;20185;-70
2022/01/19 00:05:53;;;;;;;4.03;3.20;;;5.50;99.90;;;;;;4992254;28;20491;-70
2022/01/19 00:08:21;;;;;;;2.80;1.53;;;5.50;99.90;;;;;;4992230;28;20630;-70
2022/01/19 00:10:49;;;;;;;5.03;2.30;;;5.50;99.90;;;;;;4992185;28;20184;-70
2022/01/19 00:13:14;;;;;;;5.73;2.03;;;5.50;99.90;;;;;;4992124;28;20463;-70
2022/01/19 00:15:40;;;;;;;2.60;2.23;;;5.50;99.90;;;;;;4992003;28;20420;-70
2022/01/19 00:18:06;;;;;;;2.70;2.33;;;5.50;99.90;;;;;;4992104;28;20668;-69
2022/01/19 00:20:34;;;;;;;2.70;2.50;;;5.50;99.90;;;;;;4991955;28;20408;-70
2022/01/19 00:23:00;;;;;;;5.07;3.80;;;5.50;99.90;;;;;;4992091;28;20848;-69
2022/01/19 00:25:26;;;;;;;3.90;2.53;;;5.40;99.90;;;;;;4991895;28;20494;-69
2022/01/19 00:27:52;;;;;;;6.27;2.73;;;5.40;99.90;;;;;;4991888;28;20447;-69
2022/01/19 00:30:17;;;;;;;5.73;2.37;;;5.40;99.90;;;;;;4991681;28;20173;-69
2022/01/19 00:32:43;;;;;;;3.10;2.13;;;5.40;99.90;;;;;;4991855;28;20161;-69
2022/01/19 00:35:10;;;;;;;4.10;2.23;;;5.40;99.90;;;;;;4991629;28;20280;-68
2022/01/19 00:37:36;;;;;;;3.63;3.33;;;5.40;99.90;;;;;;4991887;28;20169;-70
2022/01/19 00:40:04;;;;;;;9.53;4.60;;;5.40;99.90;;;;;;4991692;28;20821;-69
2022/01/19 00:42:29;;;;;;;3.70;2.53;;;5.40;99.90;;;;;;4991466;28;20416;-69
2022/01/19 00:44:55;;;;;;;7.23;2.40;;;5.40;99.90;;;;;;4991417;28;20448;-69
2022/01/19 00:47:20;;;;;;;1.90;1.60;;;5.50;99.90;;;;;;4991631;28;20184;-69
2022/01/19 00:49:46;;;;;;;3.00;2.00;;;5.50;99.90;;;;;;4991579;28;20169;-69
2022/01/19 00:52:13;;;;;;;4.13;2.73;;;5.50;99.90;;;;;;4991563;28;20620;-69
2022/01/19 00:54:39;;;;;;;5.57;2.70;;;5.40;99.90;;;;;;5005586;28;20244;-70
2022/01/19 00:57:06;;;;;;;6.30;4.40;;;5.30;99.90;;;;;;4993813;28;20513;-69
2022/01/19 00:59:31;;;;;;;2.20;1.97;;;5.30;99.90;;;;;;5011338;28;20442;-69
2022/01/19 01:01:57;;;;;;;2.47;2.07;;;5.30;99.90;;;;;;4985845;28;20452;-69
2022/01/19 01:04:23;;;;;;;3.83;2.80;;;5.30;99.90;;;;;;4976089;28;20715;-69
2022/01/19 01:06:48;;;;;;;3.23;2.27;;;5.30;99.90;;;;;;4988432;28;20181;-69
2022/01/19 01:09:14;;;;;;;2.30;2.10;;;5.30;99.90;;;;;;4995779;28;20343;-69
2022/01/19 01:11:47;;;;;;;4.70;2.33;;;5.30;99.90;;;;;;4995605;28;20169;-69
2022/01/19 01:16:58;;;;;;;3.80;2.57;;;5.30;99.90;;;;;;4995444;28;20416;-69
2022/01/19 01:19:23;;;;;;;4.20;3.83;;;5.30;99.90;;;;;;4995566;28;20416;-69
2022/01/19 01:21:49;;;;;;;1.90;1.70;;;5.30;99.90;;;;;;4995052;28;20414;-70
2022/01/19 01:24:14;;;;;;;6.33;2.77;;;5.30;99.90;;;;;;5022683;23;20717;-75
2022/01/19 01:26:40;;;;;;;8.53;4.07;;;5.30;99.90;;;;;;5034947;28;20235;-74
2022/01/19 01:29:05;;;;;;;4.00;2.50;;;5.30;99.90;;;;;;5035352;28;20633;-73
2022/01/19 01:31:31;;;;;;;4.93;3.73;;;5.30;99.90;;;;;;5035381;28;20163;-74
2022/01/19 01:33:56;;;;;;;2.57;2.37;;;5.30;99.90;;;;;;5034900;28;20195;-74
2022/01/19 01:36:22;;;;;;;6.13;3.53;;;5.30;99.90;;;;;;5035424;28;20171;-73
2022/01/19 01:38:47;;;;;;;3.20;2.37;;;5.30;99.90;;;;;;5035236;28;20172;-74
2022/01/19 01:41:14;;;;;;;4.53;2.80;;;5.30;99.90;;;;;;5034923;28;20734;-74
2022/01/19 01:43:42;;;;;;;5.73;3.07;;;5.30;99.90;;;;;;5035117;28;20276;-73
2022/01/19 01:46:14;;;;;;;7.70;2.60;;;5.30;99.90;;;;;;5034839;28;20489;-73
2022/01/19 01:48:44;;;;;;;2.67;2.47;;;5.30;99.90;;;;;;5034770;28;20822;-74
2022/01/19 01:53:55;;;;;;;7.40;3.27;;;5.20;99.90;;;;;;5042966;28;20843;-73
2022/01/19 01:56:21;;;;;;;4.10;3.20;;;5.30;99.90;;;;;;5036674;28;20425;-73
2022/01/19 01:58:48;;;;;;;4.73;3.67;;;5.30;99.90;;;;;;5036613;28;20198;-73
2022/01/19 02:01:14;;;;;;;6.87;3.63;;;5.20;99.90;;;;;;5054424;28;20178;-73
2022/01/19 02:03:41;;;;;;;3.70;3.17;;;5.20;99.90;;;;;;5054148;28;20490;-73
2022/01/19 02:08:56;;;;;;;7.63;3.30;;;5.30;99.90;;;;;;5034709;28;20444;-73
2022/01/19 02:15:50;;;;;;;8.13;3.17;;;5.30;99.90;;;;;;5034305;28;20429;-75
2022/01/19 02:23:08;;;;;;;4.10;3.50;;;5.20;99.90;;;;;;5036136;28;20393;-74
2022/01/19 02:25:39;;;;;;;12.93;3.40;;;5.30;99.90;;;;;;5038227;28;20477;-74
2022/01/19 02:41:38;;;;;;;6.53;3.17;;;5.30;99.90;;;;;;5034065;28;20413;-74
2022/01/19 02:44:04;;;;;;;5.53;4.20;;;5.30;99.90;;;;;;5033760;28;20462;-74
2022/01/19 02:49:16;;;;;;;6.10;4.20;;;5.30;99.90;;;;;;5033914;28;20401;-74
2022/01/19 02:51:47;;;;;;;4.13;2.90;;;5.30;99.90;;;;;;5033539;28;20403;-74
2022/01/19 02:54:13;;;;;;;6.50;3.00;;;5.30;99.90;;;;;;5044147;28;20433;-74
2022/01/19 02:56:41;;;;;;;5.20;4.70;;;5.30;99.90;;;;;;5053306;28;20409;-74
2022/01/19 02:59:19;;;;;;;4.73;3.07;;;5.30;99.90;;;;;;5035500;28;20453;-74
2022/01/19 03:09:43;;;;;;;3.53;2.70;;;5.30;99.90;;;;;;5033344;28;20410;-74
2022/01/19 03:12:09;;;;;;;3.73;3.33;;;5.30;99.90;;;;;;5033030;28;20410;-74
2022/01/19 03:14:35;;;;;;;6.17;3.30;;;5.30;99.90;;;;;;5032857;28;20450;-73
2022/01/19 03:17:01;;;;;;;3.33;2.67;;;5.30;99.90;;;;;;5032989;28;20406;-73
2022/01/19 03:19:28;;;;;;;4.00;2.47;;;5.40;99.90;;;;;;5033204;28;20168;-73
2022/01/19 03:21:54;;;;;;;5.00;4.47;;;5.40;99.90;;;;;;5032993;28;20259;-74
2022/01/19 03:24:19;;;;;;;8.00;3.57;;;5.30;99.90;;;;;;5032589;28;21050;-73
2022/01/19 03:26:45;;;;;;;2.97;2.67;;;5.30;99.90;;;;;;5032773;28;20163;-74
2022/01/19 03:29:11;;;;;;;7.60;2.90;;;5.30;99.90;;;;;;5032818;28;20247;-74
2022/01/19 03:31:36;;;;;;;10.00;4.30;;;5.20;99.90;;;;;;5032844;28;20160;-74
2022/01/19 03:34:03;;;;;;;4.50;3.57;;;5.30;99.90;;;;;;5032782;28;20389;-75
2022/01/19 03:36:29;;;;;;;4.87;3.60;;;5.30;99.90;;;;;;5032695;28;20179;-75
2022/01/19 03:38:55;;;;;;;5.70;3.83;;;5.20;99.90;;;;;;5032763;28;20403;-74
2022/01/19 03:41:21;;;;;;;3.43;3.13;;;5.30;99.90;;;;;;5032492;28;20175;-74
2022/01/19 03:43:46;;;;;;;7.83;4.20;;;5.30;99.90;;;;;;5032204;28;20928;-74
2022/01/19 03:46:14;;;;;;;6.57;3.77;;;5.30;99.90;;;;;;5032396;28;20215;-74
2022/01/19 03:48:53;;;;;;;6.50;4.70;;;5.30;99.90;;;;;;5032730;28;20535;-74
2022/01/19 03:51:19;;;;;;;6.77;2.80;;;5.30;99.90;;;;;;5032628;28;20406;-72
2022/01/19 03:53:45;;;;;;;4.30;3.57;;;5.30;99.90;;;;;;5039110;28;20430;-74
2022/01/19 03:56:10;;;;;;;4.90;3.33;;;5.20;99.90;;;;;;5052085;28;20233;-74
2022/01/19 03:58:36;;;;;;;4.80;3.03;;;5.30;99.90;;;;;;5052564;28;20497;-72
2022/01/19 04:01:04;;;;;;;11.07;4.50;;;5.20;99.90;;;;;;5052525;28;20170;-72
2022/01/19 04:03:48;;;;;;;5.60;3.97;;;5.20;99.90;;;;;;5034346;28;20427;-74
2022/01/19 04:06:18;;;;;;;7.07;3.90;;;5.20;99.90;;;;;;5043987;28;20829;-75
2022/01/19 04:08:44;;;;;;;8.60;3.50;;;5.20;99.90;;;;;;5032354;28;20816;-73
2022/01/19 04:11:09;;;;;;;3.33;2.93;;;5.20;99.90;;;;;;5032209;28;20398;-74
2022/01/19 04:16:19;;;;;;;3.60;2.90;;;5.20;99.90;;;;;;5032362;28;20739;-74
2022/01/19 04:18:44;;;;;;;5.93;3.87;;;5.30;99.90;;;;;;5032404;28;20407;-74
2022/01/19 04:21:09;;;;;;;5.50;4.23;;;5.30;99.90;;;;;;5031904;28;20187;-73
2022/01/19 04:23:35;;;;;;;7.47;4.60;;;5.20;99.90;;;;;;5032146;28;20194;-74
2022/01/19 04:26:00;;;;;;;4.37;3.63;;;5.20;99.90;;;;;;5031854;28;20263;-73
2022/01/19 04:28:26;;;;;;;5.63;4.03;;;5.30;99.90;;;;;;5031935;28;20238;-74
2022/01/19 04:30:51;;;;;;;4.40;3.03;;;5.30;99.90;;;;;;5032210;28;20186;-73
2022/01/19 04:33:22;;;;;;;4.80;4.30;;;5.30;99.90;;;;;;5032346;28;20164;-73
2022/01/19 04:35:53;;;;;;;7.70;4.73;;;5.30;99.90;;;;;;5031656;28;20638;-74
2022/01/19 04:44:13;;;;;;;6.67;4.10;;;5.20;99.90;;;;;;5029365;28;20468;-74
2022/01/19 05:05:04;;;;;;;5.20;4.50;;;5.10;99.90;;;;;;5051341;28;20465;-74
2022/01/19 05:15:41;;;;;;;5.53;4.37;;;5.00;99.90;;;;;;5031818;28;20409;-73
2022/01/19 05:18:08;;;;;;;4.30;3.77;;;5.00;99.90;;;;;;5031346;28;20406;-74
2022/01/19 05:20:33;;;;;;;10.33;5.30;;;5.00;99.90;;;;;;5031508;28;20550;-75
2022/01/19 05:22:59;;;;;;;4.20;3.80;;;5.00;99.90;;;;;;5031387;28;20418;-73
2022/01/19 05:25:24;;;;;;;7.87;3.80;;;5.00;99.90;;;;;;5031034;28;20207;-74
2022/01/19 05:27:50;;;;;;;6.63;4.73;;;5.00;99.90;;;;;;5031270;28;20175;-74
2022/01/19 05:30:17;;;;;;;5.20;4.53;;;4.90;99.90;;;;;;5031247;28;20197;-75
2022/01/19 05:32:44;;;;;;;6.13;3.73;;;4.90;99.90;;;;;;5031348;28;20167;-73
2022/01/19 05:35:09;;;;;;;5.83;3.77;;;4.90;99.90;;;;;;5031029;28;20544;-74
2022/01/19 05:37:36;;;;;;;5.27;3.87;;;4.90;99.90;;;;;;5031313;28;20497;-73
2022/01/19 05:40:11;;;;;;;9.40;5.50;;;4.90;99.90;;;;;;5031273;28;20183;-74
2022/01/19 05:42:37;;;;;;;9.43;4.03;;;4.90;99.90;;;;;;5030921;28;20413;-74
2022/01/19 05:45:03;;;;;;;7.23;5.03;;;4.90;99.90;;;;;;5030983;28;20519;-74
2022/01/19 05:47:29;;;;;;;5.13;4.40;;;5.00;99.90;;;;;;5032515;28;20437;-73
2022/01/19 05:49:55;;;;;;;8.03;4.27;;;5.00;99.90;;;;;;5034915;28;20468;-74
2022/01/19 05:52:20;;;;;;;5.13;4.00;;;4.90;99.90;;;;;;5034683;28;20406;-73
2022/01/19 05:54:46;;;;;;;6.30;5.43;;;4.90;99.90;;;;;;5049806;28;20260;-73
2022/01/19 05:57:12;;;;;;;7.77;5.30;;;4.90;99.90;;;;;;5054514;28;20653;-74
2022/01/19 05:59:38;;;;;;;6.40;5.67;;;4.90;99.90;;;;;;5054484;28;20475;-72
2022/01/19 06:02:04;;;;;;;3.97;3.60;;;4.90;99.90;;;;;;5054822;28;20463;-75
2022/01/19 06:04:29;;;;;;;11.63;5.67;;;4.80;99.90;;;;;;5054433;28;20195;-74
2022/01/19 06:06:56;;;;;;;7.17;3.83;;;4.80;99.90;;;;;;5040723;28;20176;-73
2022/01/19 06:09:49;;;;;;;9.00;3.70;;;4.80;99.90;;;;;;5034570;28;20532;-73
2022/01/19 06:12:16;;;;;;;5.23;3.40;;;4.80;99.90;;;;;;5035096;28;20413;-74
2022/01/19 06:14:43;;;;;;;10.07;4.50;;;4.80;99.90;;;;;;5034601;28;20484;-75
2022/01/19 06:17:11;;;;;;;7.63;4.17;;;4.70;99.90;;;;;;5034507;28;20402;-75
2022/01/19 06:19:37;;;;;;;7.30;4.80;;;4.80;99.90;;;;;;5034495;28;20423;-73
2022/01/19 06:22:03;;;;;;;7.07;5.20;;;4.70;99.90;;;;;;5034123;28;20406;-74
2022/01/19 06:24:29;;;;;;;6.47;4.50;;;4.70;99.90;;;;;;5033997;28;20542;-74
2022/01/19 06:26:55;;;;;;;4.87;3.40;;;4.70;99.90;;;;;;5034032;28;20406;-73
2022/01/19 06:29:21;;;;;;;5.00;4.50;;;4.60;99.90;;;;;;5034164;28;20170;-73
2022/01/19 06:31:47;;;;;;;7.90;5.30;;;4.60;99.90;;;;;;5033909;28;20493;-75
2022/01/19 06:34:13;;;;;;;4.97;4.47;;;4.60;99.90;;;;;;5033817;28;20434;-72
2022/01/19 06:36:38;;;;;;;8.20;5.60;;;4.60;99.90;;;;;;5034004;28;20417;-72
2022/01/19 06:39:04;;;;;;;15.03;4.80;;;4.60;99.90;;;;;;5033761;28;20206;-75
2022/01/19 06:41:30;;;;;;;9.60;4.70;;;4.50;99.90;;;;;;5031986;28;20184;-73
2022/01/19 06:43:55;;;;;;;8.13;5.27;;;4.60;99.90;;;;;;5030756;28;20450;-73
2022/01/19 06:46:21;;;;;;;5.77;5.23;;;4.60;99.90;;;;;;5033661;28;20562;-71
2022/01/19 06:48:46;;;;;;;5.50;3.50;;;4.60;99.90;;;;;;5037383;28;20579;-73
2022/01/19 06:51:12;;;;;;;6.87;4.17;;;4.60;99.90;;;;;;5036608;28;20555;-73
2022/01/19 06:53:37;;;;;;;6.17;4.67;;;4.60;99.90;;;;;;5039090;28;20313;-72
2022/01/19 06:56:03;;;;;;;10.63;5.13;;;4.70;99.90;;;;;;5034810;28;20568;-72
2022/01/19 06:58:29;;;;;;;14.90;4.50;;;4.70;99.90;;;;;;5032655;28;20187;-72
2022/01/19 07:00:56;;;;;;;11.87;4.60;;;4.70;99.90;;;;;;5026745;28;20183;-73
2022/01/19 07:03:22;;;;;;;8.07;4.60;;;4.60;99.90;;;;;;5023351;28;20234;-73
2022/01/19 07:05:47;;;;;;;6.83;6.13;;;4.60;99.90;;;;;;5032874;28;20449;-72
2022/01/19 07:08:15;;;;;;;8.60;5.10;;;4.60;99.90;;;;;;5033163;28;20602;-73
2022/01/19 07:10:40;;;;;;;6.83;4.77;;;4.60;99.90;;;;;;5015035;28;20175;-72
2022/01/19 07:13:06;;;;;;;5.47;3.90;;;4.60;99.90;;;;;;5033009;28;20806;-71
2022/01/19 07:15:32;;;;;;;9.37;5.07;;;4.60;99.90;;;;;;5032800;28;20231;-71
2022/01/19 07:17:58;;;;;;;10.43;4.97;;;4.60;99.90;;;;;;5033091;28;20465;-72
2022/01/19 07:20:24;;;;;;;6.37;4.33;;;4.60;99.90;;;;;;5026388;28;20187;-72
2022/01/19 07:22:50;;;;;;;6.90;4.20;;;4.60;99.90;;;;;;5027216;28;20180;-72
2022/01/19 07:25:17;;;;;;;6.87;4.63;;;4.60;99.90;;;;;;5032787;28;20959;-73
2022/01/19 07:27:42;;;;;;;4.60;3.00;;;4.60;99.90;;;;;;5032837;28;20187;-73
2022/01/19 07:30:09;;;;;;;5.33;3.77;;;4.50;99.90;;;;;;5032584;28;20831;-73
2022/01/19 07:32:35;;;;;;;7.00;3.80;;;4.50;99.90;;;;;;5032615;28;20172;-73
2022/01/19 07:35:03;;;;;;;4.57;3.73;;;4.50;99.90;;;;;;5031974;28;20503;-73
2022/01/19 07:37:28;;;;;;;3.47;2.97;;;4.70;99.90;;;;;;5032433;28;20426;-74
2022/01/19 07:39:54;;;;;;;4.40;3.30;;;4.90;99.90;;;;;;5032600;28;20536;-74
2022/01/19 07:42:19;;;;;;;7.60;4.30;;;5.00;99.90;;;;;;5032378;28;20225;-72
2022/01/19 07:44:45;;;;;;;4.13;2.53;;;5.00;99.90;;;;;;5032191;28;20620;-73
2022/01/19 07:47:11;;;;;;;8.17;4.33;;;5.00;99.90;;;;;;5032234;28;20413;-72
2022/01/19 07:49:37;;;;;;;5.07;3.40;;;5.00;99.90;;;;;;5032098;28;20481;-74
2022/01/19 07:52:02;;;;;;;8.13;4.17;;;4.80;99.90;;;;;;5014585;28;20171;-74
2022/01/19 07:54:28;;;;;;;5.40;4.73;;;4.80;99.90;;;;;;5044101;28;20199;-74
2022/01/19 07:56:53;;;;;;;5.23;3.90;;;4.90;99.90;;;;;;5032145;28;20190;-74
2022/01/19 07:59:19;;;;;;;4.37;3.60;;;4.90;99.90;;;;;;5032386;28;20180;-74
2022/01/19 08:01:45;;;;;;;7.37;3.43;;;4.90;99.90;;;;;;5032292;28;20207;-74
2022/01/19 08:04:10;;;;;;;5.07;3.63;;;4.90;99.90;;;;;;5031632;28;20230;-73
2022/01/19 08:06:36;;;;;;;7.03;4.97;;;4.90;99.90;;;;;;5031878;28;20182;-73
2022/01/19 08:09:03;;;;;;;5.70;3.57;;;4.90;99.90;;;;;;5025502;28;20171;-75
2022/01/19 08:11:29;;;;;;;4.50;2.80;;;4.90;99.90;;;;;;5016836;28;20550;-74
2022/01/19 08:13:54;;;;;;;3.40;2.80;;;4.90;99.90;;;;;;5021021;28;20434;-74
2022/01/19 08:16:21;;;;;;;4.83;3.00;;;4.90;99.90;;;;;;5031475;28;20209;-73
2022/01/19 08:18:47;;;;;;;4.73;3.40;;;5.00;99.90;;;;;;5031673;28;20167;-73
2022/01/19 08:21:12;;;;;;;8.07;3.40;;;5.00;99.90;;;;;;5031799;28;20476;-72
2022/01/19 08:23:38;;;;;;;3.90;2.27;;;5.00;99.90;;;;;;5031290;28;20857;-73
2022/01/19 08:26:04;;;;;;;2.87;2.67;;;4.90;99.90;;;;;;5031662;28;20278;-74
2022/01/19 08:28:29;;;;;;;3.20;2.40;;;4.90;99.90;;;;;;5032082;28;20199;-76
2022/01/19 08:30:54;;;;;;;3.23;2.80;;;5.00;99.90;;;;;;5031729;28;20186;-74
2022/01/19 08:33:20;;;;;;;2.57;2.37;;;5.40;99.90;;;;;;5032043;28;20190;-75
2022/01/19 08:35:46;;;;;;;5.50;3.87;;;5.50;99.90;;;;;;5031203;28;20183;-75
2022/01/19 08:38:11;;;;;;;7.13;3.80;;;5.30;99.90;;;;;;5031231;28;20207;-75
2022/01/19 08:40:37;;;;;;;10.53;4.53;;;5.10;99.90;;;;;;5031373;28;20652;-73
2022/01/19 08:43:04;;;;;;;4.80;3.47;;;4.90;99.90;;;;;;5031304;28;20282;-74
2022/01/19 08:45:29;;;;;;;3.00;2.70;;;4.80;99.90;;;;;;5031340;28;20203;-74
2022/01/19 08:47:55;;;;;;;3.13;2.60;;;4.80;99.90;;;;;;5036282;28;20418;-74
2022/01/19 08:50:21;;;;;;;3.27;3.00;;;4.90;99.90;;;;;;5031213;28;20171;-73
2022/01/19 08:52:47;;;;;;;2.07;1.90;;;4.80;99.90;;;;;;5031418;28;20646;-74
2022/01/19 08:55:13;;;;;;;2.73;2.50;;;4.90;99.90;;;;;;5036198;28;20453;-74
2022/01/19 08:57:39;;;;;;;4.33;2.80;;;5.00;99.90;;;;;;5031367;28;20422;-73
2022/01/19 09:00:11;;;;;;;2.83;2.43;;;5.10;99.90;;;;;;5031996;28;20495;-73
2022/01/19 09:02:36;;;;;;;3.67;3.37;;;5.10;99.90;;;;;;5027095;28;20666;-73
2022/01/19 09:05:06;;;;;;;3.63;2.80;;;4.90;99.90;;;;;;5031028;28;20458;-74
2022/01/19 09:07:32;;;;;;;7.03;2.80;;;5.00;99.90;;;;;;5031299;28;20175;-73
2022/01/19 09:09:57;;;;;;;5.67;3.13;;;5.40;99.90;;;;;;5031265;28;20422;-73
2022/01/19 09:12:23;;;;;;;5.80;2.30;;;5.40;99.90;;;;;;5031310;28;20970;-73
2022/01/19 09:14:49;;;;;;;2.00;1.80;;;5.40;99.90;;;;;;5031387;28;20204;-73
2022/01/19 09:17:14;;;;;;;4.50;2.53;;;5.40;99.90;;;;;;5031419;28;20884;-74
2022/01/19 09:19:41;;;;;;;2.87;1.93;;;5.20;99.90;;;;;;5031440;28;20175;-73
2022/01/19 09:22:10;;;;;;;2.03;1.77;;;5.00;99.90;;;;;;5033095;28;20189;-73
2022/01/19 09:24:38;;;;;;;2.13;1.93;;;5.20;99.90;;;;;;5036146;28;20538;-74
2022/01/19 09:27:04;;;;;;;3.20;2.60;;;5.00;99.90;;;;;;5035608;28;20477;-73
2022/01/19 09:29:30;;;;;;;2.97;2.67;;;4.90;99.90;;;;;;5040585;28;20450;-74
2022/01/19 09:31:59;;;;;;;5.70;3.40;;;4.90;99.90;;;;;;5041610;28;20947;-74
2022/01/19 09:34:25;;;;;;;5.57;2.50;;;5.00;99.90;;;;;;5042598;28;20437;-74
2022/01/19 09:36:50;;;;;;;6.20;3.10;;;5.00;99.90;;;;;;5042259;28;20808;-73
2022/01/19 09:39:20;;;;;;;6.90;4.00;;;5.00;99.90;;;;;;5040271;28;20425;-73
2022/01/19 09:41:48;;;;;;;4.10;2.57;;;5.10;99.90;;;;;;5039398;28;20172;-74
2022/01/19 09:44:14;;;;;;;6.37;3.57;;;5.00;99.90;;;;;;5041031;28;20546;-73
2022/01/19 09:46:40;;;;;;;3.80;2.40;;;5.00;99.90;;;;;;5043646;28;20808;-74
2022/01/19 09:49:06;;;;;;;2.93;2.73;;;4.90;99.90;;;;;;5043584;28;20414;-73
2022/01/19 09:51:32;;;;;;;6.90;3.20;;;5.00;99.90;;;;;;5039228;28;20171;-72
2022/01/19 09:53:57;;;;;;;5.00;3.70;;;5.00;99.90;;;;;;5043137;28;20205;-72
2022/01/19 09:56:23;;;;;;;4.40;3.43;;;5.10;99.90;;;;;;5037947;28;20865;-72
2022/01/19 09:58:49;;;;;;;4.53;3.23;;;5.00;99.90;;;;;;5034206;28;20646;-72
2022/01/19 10:01:22;;;;;;;5.23;3.50;;;4.90;99.90;;;;;;5034425;28;20425;-73
2022/01/19 10:03:48;;;;;;;6.40;3.60;;;4.90;99.90;;;;;;5031713;28;20192;-73
2022/01/19 10:06:16;;;;;;;4.40;3.37;;;4.90;99.90;;;;;;5034309;28;20461;-73
2022/01/19 10:09:00;;;;;;;4.23;3.93;;;4.90;99.90;;;;;;5034293;28;20410;-73
2022/01/19 10:16:58;;;;;;;3.23;2.93;;;5.00;99.90;;;;;;5034257;28;20418;-73
2022/01/19 10:17:03;;;;;;;3.90;3.10;;;5.00;99.90;;;;;;5034124;28;20784;-73
2022/01/19 10:19:39;;;;;;;4.63;3.70;;;5.10;99.90;;;;;;5033926;28;20414;-73
2022/01/19 10:22:13;;;;;;;7.93;3.63;;;5.10;99.90;;;;;;5016670;28;20422;-73
2022/01/19 10:24:52;;;;;;;5.63;3.30;;;5.10;99.90;;;;;;5034303;28;21023;-74
2022/01/19 10:27:26;;;;;;;3.73;3.43;;;5.10;99.90;;;;;;5034475;28;20487;-74
2022/01/19 10:30:10;;;;;;;5.30;3.50;;;5.10;99.90;;;;;;5034223;28;20414;-73
2022/01/19 10:32:36;;;;;;;3.70;2.83;;;5.20;99.90;;;;;;5033977;28;20426;-73
2022/01/19 10:35:22;;;;;;;7.40;3.60;;;5.20;99.90;;;;;;5030509;28;20450;-74
2022/01/19 10:38:06;;;;;;;6.20;3.60;;;5.20;99.90;;;;;;5032219;28;20444;-74
2022/01/19 10:40:33;;;;;;;4.33;4.00;;;5.20;99.90;;;;;;5034430;28;20468;-73
2022/01/19 10:42:58;;;;;;;4.77;3.70;;;5.30;99.90;;;;;;5025044;28;20419;-73
2022/01/19 10:45:24;;;;;;;4.80;3.50;;;5.30;99.90;;;;;;5025389;28;21151;-73
2022/01/19 10:47:56;;;;;;;6.60;5.50;;;5.30;99.90;;;;;;5041942;28;20178;-74
2022/01/19 10:50:28;;;;;;;6.43;4.80;;;5.20;99.90;;;;;;5034958;28;20168;-74
2022/01/19 10:52:56;;;;;;;10.80;6.33;;;5.10;99.90;;;;;;5033268;28;20793;-73
2022/01/19 10:55:40;;;;;;;7.70;3.63;;;5.20;99.90;;;;;;5033374;28;20446;-73
2022/01/19 10:58:14;;;;;;;5.97;3.90;;;5.00;99.90;;;;;;5033386;28;20513;-73
2022/01/19 11:00:48;;;;;;;7.27;4.80;;;5.10;99.90;;;;;;5033477;28;20440;-73
2022/01/19 11:03:25;;;;;;;10.97;6.07;;;5.10;99.90;;;;;;5033612;28;20474;-73
2022/01/19 11:05:53;;;;;;;9.97;6.97;;;5.00;99.90;;;;;;5033116;28;20799;-72
2022/01/19 11:08:21;;;;;;;8.70;4.60;;;5.20;99.90;;;;;;5033690;28;20430;-73
2022/01/19 11:10:49;;;;;;;7.03;4.70;;;5.00;99.90;;;;;;5033240;28;20414;-73
2022/01/19 11:13:31;;;;;;;8.37;5.83;;;5.10;99.90;;;;;;5033855;28;20418;-74
2022/01/19 11:16:03;;;;;;;6.80;4.77;;;5.00;99.90;;;;;;5033727;28;20429;-75
2022/01/19 11:18:29;;;;;;;8.23;5.57;;;4.90;99.90;;;;;;5034532;28;20422;-74
2022/01/19 11:21:13;;;;;;;6.67;6.03;;;4.90;99.90;;;;;;5033998;28;20426;-75
2022/01/19 11:23:50;;;;;;;4.70;4.00;;;4.90;99.90;;;;;;5016304;28;20464;-72
2022/01/19 11:26:17;;;;;;;6.80;3.90;;;4.90;99.90;;;;;;5033407;28;21049;-73
2022/01/19 11:28:46;;;;;;;5.13;4.30;;;4.80;99.90;;;;;;5015709;28;20468;-73
2022/01/19 11:31:21;;;;;;;6.27;5.63;;;4.80;99.90;;;;;;5033463;28;21127;-72
2022/01/19 11:33:56;;;;;;;6.87;4.97;;;4.80;99.90;;;;;;5032971;28;20435;-73
2022/01/19 11:36:31;;;;;;;5.47;4.90;;;5.10;99.90;;;;;;5031174;28;20426;-74
2022/01/19 11:39:00;;;;;;;8.10;5.83;;;4.90;99.90;;;;;;5019719;28;20430;-73
2022/01/19 11:41:44;;;;;;;8.73;4.73;;;4.90;99.90;;;;;;5026015;28;20416;-73
2022/01/19 11:44:31;;;;;;;11.70;6.23;;;4.80;99.90;;;;;;5015875;28;20418;-73
2022/01/19 11:47:16;;;;;;;9.40;5.90;;;4.60;99.90;;;;;;5031735;28;20440;-74
2022/01/19 11:50:07;;;;;;;10.60;6.00;;;4.40;99.90;;;;;;5037630;28;20413;-74
2022/01/19 11:52:39;;;;;;;8.60;7.10;;;4.20;99.90;;;;;;5032908;28;20419;-73
2022/01/19 11:55:17;;;;;;;8.17;5.50;;;4.30;99.90;;;;;;5036278;28;20453;-73
2022/01/19 11:57:46;;;;;;;10.53;7.60;;;4.30;99.90;;;;;;5032600;28;20855;-74
2022/01/19 12:00:24;;;;;;;11.50;7.27;;;4.40;99.90;;;;;;5032489;28;20906;-73
2022/01/19 12:02:59;;;;;;;7.20;4.97;;;4.50;99.90;;;;;;5032110;28;20963;-74
2022/01/19 12:05:35;;;;;;;11.17;7.90;;;4.30;99.90;;;;;;5032537;28;20967;-72
2022/01/19 12:08:17;;;;;;;8.47;5.77;;;4.30;99.90;;;;;;5015290;28;20456;-74
2022/01/19 12:10:46;;;;;;;10.17;6.23;;;4.40;99.90;;;;;;5032352;28;20484;-73
2022/01/19 12:13:54;;;;;;;11.17;7.80;;;4.30;99.90;;;;;;5032175;28;20423;-74
2022/01/19 12:16:44;;;;;;;8.17;7.47;;;4.20;99.90;;;;;;5026905;28;20967;-74
2022/01/19 12:19:13;;;;;;;9.20;5.13;;;4.10;99.90;;;;;;5032794;28;20486;-72
2022/01/19 12:22:05;;;;;;;6.67;4.33;;;4.10;99.90;;;;;;5025355;28;20416;-74
2022/01/19 12:24:36;;;;;;;6.30;5.50;;;4.00;99.90;;;;;;5031930;28;20476;-73
2022/01/19 12:27:07;;;;;;;8.57;5.30;;;3.90;99.90;;;;;;5032238;28;20479;-72
2022/01/19 12:29:33;;;;;;;8.70;6.30;;;3.90;99.90;;;;;;5032409;28;20461;-72
2022/01/19 12:32:00;;;;;;;7.37;4.77;;;4.10;99.90;;;;;;5031768;28;20502;-73
2022/01/19 12:34:38;;;;;;;7.67;5.73;;;4.10;99.90;;;;;;5025489;28;20196;-71
2022/01/19 12:37:04;;;;;;;7.67;6.00;;;4.10;99.90;;;;;;5031720;28;21021;-73
2022/01/19 12:39:29;;;;;;;7.67;5.90;;;4.00;99.90;;;;;;5033326;28;20430;-73
2022/01/19 12:41:59;;;;;;;7.23;6.17;;;3.70;99.90;;;;;;5032655;28;20191;-72
2022/01/19 12:44:39;;;;;;;7.17;6.03;;;3.80;99.90;;;;;;5033840;28;20637;-73
2022/01/19 12:47:29;;;;;;;5.43;4.50;;;3.80;99.90;;;;;;5035443;28;20425;-74
2022/01/19 12:50:03;;;;;;;5.27;4.73;;;3.70;99.90;;;;;;5034642;28;20422;-73
2022/01/19 12:52:31;;;;;;;5.87;4.47;;;3.70;99.90;;;;;;5038256;28;20410;-73
2022/01/19 12:55:07;;;;;;;5.77;5.27;;;3.70;99.90;;;;;;5052874;28;20468;-73
2022/01/19 12:57:33;;;;;;;6.20;4.70;;;3.60;99.90;;;;;;5042792;28;20484;-74
2022/01/19 12:59:58;;;;;;;5.30;4.40;;;3.70;99.90;;;;;;5044950;28;20442;-73
2022/01/19 13:02:28;;;;;;;6.10;5.53;;;3.60;99.90;;;;;;5044053;28;20263;-73
2022/01/19 13:05:03;;;;;;;9.60;5.60;;;3.70;99.90;;;;;;5043824;28;20294;-73
2022/01/19 13:07:31;;;;;;;8.30;6.17;;;3.70;99.90;;;;;;5042298;28;20460;-74
2022/01/19 13:10:23;;;;;;;9.77;6.70;;;3.60;99.90;;;;;;5036596;28;20789;-73
2022/01/19 13:13:09;;;;;;;8.00;5.43;;;3.70;99.90;;;;;;5038409;28;20467;-73
2022/01/19 13:16:07;;;;;;;10.70;8.43;;;3.70;99.90;;;;;;5022491;28;20469;-73
2022/01/19 13:18:36;;;;;;;8.10;5.30;;;3.60;99.90;;;;;;4986671;28;20430;-73
2022/01/19 13:21:12;;;;;;;10.23;8.30;;;3.80;99.90;;;;;;5037097;28;20767;-76
2022/01/19 13:23:59;;;;;;;7.63;5.27;;;3.70;99.90;;;;;;5038611;28;20434;-73
2022/01/19 13:26:37;;;;;;;9.70;6.27;;;3.80;99.90;;;;;;5041115;28;20418;-73
2022/01/19 13:29:17;;;;;;;7.40;6.70;;;3.70;99.90;;;;;;5041621;28;20430;-74
2022/01/19 13:32:17;;;;;;;7.80;5.27;;;3.60;99.90;;;;;;5038778;28;20944;-73
2022/01/19 13:34:56;;;;;;;12.03;6.20;;;3.70;99.90;;;;;;4993157;28;20446;-73
2022/01/19 13:37:24;;;;;;;8.20;5.70;;;3.60;99.90;;;;;;5027443;28;20939;-74
2022/01/19 13:40:17;;;;;;;12.67;9.20;;;3.70;99.90;;;;;;5036840;28;20750;-73
2022/01/19 13:42:43;;;;;;;8.67;5.80;;;3.70;99.90;;;;;;5022609;28;20449;-72
2022/01/19 13:45:24;;;;;;;9.50;6.30;;;3.70;99.90;;;;;;5037388;28;20454;-73
2022/01/19 13:48:18;;;;;;;8.23;6.03;;;3.60;99.90;;;;;;5038222;28;20436;-72
2022/01/19 13:50:50;;;;;;;7.27;5.23;;;3.60;99.90;;;;;;5046092;28;20414;-73
2022/01/19 13:53:28;;;;;;;5.77;5.17;;;3.60;99.90;;;;;;5056769;28;20453;-73
2022/01/19 13:55:55;;;;;;;4.03;3.60;;;3.50;99.90;;;;;;5033297;28;20417;-73
2022/01/19 13:58:20;;;;;;;5.63;5.10;;;3.60;99.90;;;;;;5043059;28;20479;-72
2022/01/19 14:00:57;;;;;;;4.27;2.93;;;3.50;99.90;;;;;;5035186;28;20581;-73
2022/01/19 14:03:24;;;;;;;5.80;2.93;;;3.60;99.90;;;;;;5036291;28;20229;-73
2022/01/19 14:05:53;;;;;;;4.73;4.33;;;3.50;99.90;;;;;;5034303;28;20489;-73
2022/01/19 14:08:32;;;;;;;5.07;3.50;;;3.50;99.90;;;;;;5028872;28;21023;-71
2022/01/19 14:10:59;;;;;;;4.60;3.40;;;3.50;99.90;;;;;;5020590;28;20450;-72
2022/01/19 14:13:30;;;;;;;4.63;3.83;;;3.60;99.90;;;;;;5020056;28;20462;-72
2022/01/19 14:15:57;;;;;;;8.63;5.10;;;3.70;99.90;;;;;;5031916;28;20427;-73
2022/01/19 14:18:24;;;;;;;4.87;3.33;;;3.70;99.90;;;;;;5033924;28;20868;-72
2022/01/19 14:21:06;;;;;;;5.63;4.03;;;3.70;99.90;;;;;;5034049;28;20956;-73
2022/01/19 14:23:32;;;;;;;4.80;3.80;;;3.70;99.90;;;;;;5033715;28;20877;-72
2022/01/19 14:26:09;;;;;;;5.30;3.80;;;3.70;99.90;;;;;;5032911;28;20466;-72